sensor_id;sensor_type;location;lat;lon;timestamp;pressure;altitude;pressure_sealevel;temperature;humidity
66381;BME280;53177;52.648;1.214;2023-04-02T00:01:42;101359.53;;;5.23;100.00
66381;BME280;53177;52.648;1.214;2023-04-02T00:06:49;101367.44;;;5.26;100.00
66381;BME280;53177;52.648;1.214;2023-04-02T00:09:36;101372.66;;;5.25;100.00
66381;BME280;53177;52.648;1.214;2023-04-02T00:12:16;101373.56;;;5.27;100.00
66381;BME280;53177;52.648;1.214;2023-04-02T00:14:52;101383.19;;;5.29;100.00
66381;BME280;53177;52.648;1.214;2023-04-02T00:17:20;101375.34;;;5.31;100.00
66381;BME280;53177;52.648;1.214;2023-04-02T00:19:53;101384.94;;;5.27;100.00
66381;BME280;53177;52.648;1.214;2023-04-02T00:22:25;101384.94;;;5.30;100.00
66381;BME280;53177;52.648;1.214;2023-04-02T00:24:53;101389.25;;;5.25;100.00
66381;BME280;53177;52.648;1.214;2023-04-02T00:27:19;101398.88;;;5.26;100.00
66381;BME280;53177;52.648;1.214;2023-04-02T00:29:53;101395.41;;;5.27;100.00
66381;BME280;53177;52.648;1.214;2023-04-02T00:32:30;101404.13;;;5.26;100.00
66381;BME280;53177;52.648;1.214;2023-04-02T00:34:58;101401.47;;;5.25;100.00
66381;BME280;53177;52.648;1.214;2023-04-02T00:37:27;101402.38;;;5.25;100.00
66381;BME280;53177;52.648;1.214;2023-04-02T00:39:59;101409.34;;;5.25;100.00
66381;BME280;53177;52.648;1.214;2023-04-02T00:42:28;101407.63;;;5.24;100.00
66381;BME280;53177;52.648;1.214;2023-04-02T00:44:55;101411.97;;;5.23;100.00
66381;BME280;53177;52.648;1.214;2023-04-02T00:47:36;101425.09;;;5.25;100.00
66381;BME280;53177;52.648;1.214;2023-04-02T00:50:18;101430.31;;;5.23;100.00
66381;BME280;53177;52.648;1.214;2023-04-02T00:52:48;101431.16;;;5.19;100.00
66381;BME280;53177;52.648;1.214;2023-04-02T00:55:22;101440.72;;;5.16;100.00
66381;BME280;53177;52.648;1.214;2023-04-02T00:57:50;101441.63;;;5.18;100.00
66381;BME280;53177;52.648;1.214;2023-04-02T01:00:27;101452.06;;;5.13;99.59
66381;BME280;53177;52.648;1.214;2023-04-02T01:05:46;101452.03;;;5.12;97.82
66381;BME280;53177;52.648;1.214;2023-04-02T01:11:24;101460.75;;;5.11;98.23
66381;BME280;53177;52.648;1.214;2023-04-02T01:16:57;101469.47;;;5.08;98.67
66381;BME280;53177;52.648;1.214;2023-04-02T01:24:42;101487.81;;;5.05;98.05
66381;BME280;53177;52.648;1.214;2023-04-02T01:27:31;101488.66;;;5.04;97.19
66381;BME280;53177;52.648;1.214;2023-04-02T01:30:00;101489.56;;;5.06;97.98
66381;BME280;53177;52.648;1.214;2023-04-02T01:32:28;101487.78;;;5.02;97.88
66381;BME280;53177;52.648;1.214;2023-04-02T01:34:55;101488.63;;;5.03;97.44
66381;BME280;53177;52.648;1.214;2023-04-02T01:45:21;101500.88;;;5.04;97.39
66381;BME280;53177;52.648;1.214;2023-04-02T01:47:48;101501.72;;;5.03;96.75
66381;BME280;53177;52.648;1.214;2023-04-02T01:52:58;101512.22;;;5.03;97.24
66381;BME280;53177;52.648;1.214;2023-04-02T01:55:49;101522.72;;;5.04;97.53
66381;BME280;53177;52.648;1.214;2023-04-02T01:58:20;101527.09;;;5.04;96.89
66381;BME280;53177;52.648;1.214;2023-04-02T02:00:56;101524.47;;;5.04;97.70
66381;BME280;53177;52.648;1.214;2023-04-02T02:03:24;101528.81;;;5.02;97.58
66381;BME280;53177;52.648;1.214;2023-04-02T02:05:50;101536.69;;;5.03;97.79
66381;BME280;53177;52.648;1.214;2023-04-02T02:10:58;101546.31;;;5.04;95.71
66381;BME280;53177;52.648;1.214;2023-04-02T02:13:24;101548.09;;;5.05;94.87
66381;BME280;53177;52.648;1.214;2023-04-02T02:15:50;101552.44;;;5.05;94.02
66381;BME280;53177;52.648;1.214;2023-04-02T02:18:18;101558.53;;;5.04;94.47
66381;BME280;53177;52.648;1.214;2023-04-02T02:20:47;101568.13;;;5.03;93.91
66381;BME280;53177;52.648;1.214;2023-04-02T02:23:14;101561.19;;;5.07;92.69
66381;BME280;53177;52.648;1.214;2023-04-02T02:25:40;101562.97;;;5.08;93.44
66381;BME280;53177;52.648;1.214;2023-04-02T02:30:51;101572.50;;;5.03;93.19
66381;BME280;53177;52.648;1.214;2023-04-02T02:33:26;101573.34;;;5.00;94.07
66381;BME280;53177;52.648;1.214;2023-04-02T02:36:01;101569.03;;;5.04;93.04
66381;BME280;53177;52.648;1.214;2023-04-02T02:38:36;101568.19;;;5.05;93.33
66381;BME280;53177;52.648;1.214;2023-04-02T02:41:07;101574.22;;;5.01;93.78
66381;BME280;53177;52.648;1.214;2023-04-02T02:43:38;101576.84;;;5.01;93.49
66381;BME280;53177;52.648;1.214;2023-04-02T02:46:06;101584.75;;;5.02;93.85
66381;BME280;53177;52.648;1.214;2023-04-02T02:48:37;101591.69;;;5.00;94.13
66381;BME280;53177;52.648;1.214;2023-04-02T02:51:12;101596.94;;;4.99;93.45
66381;BME280;53177;52.648;1.214;2023-04-02T02:53:49;101597.78;;;4.99;93.92
66381;BME280;53177;52.648;1.214;2023-04-02T02:56:16;101602.19;;;4.99;93.87
66381;BME280;53177;52.648;1.214;2023-04-02T02:58:43;101597.78;;;4.99;94.30
66381;BME280;53177;52.648;1.214;2023-04-02T03:01:08;101603.00;;;4.96;93.91
66381;BME280;53177;52.648;1.214;2023-04-02T03:03:34;101598.63;;;4.97;94.02
66381;BME280;53177;52.648;1.214;2023-04-02T03:06:05;101606.53;;;4.98;94.11
66381;BME280;53177;52.648;1.214;2023-04-02T03:08:37;101616.13;;;4.98;94.20
66381;BME280;53177;52.648;1.214;2023-04-02T03:11:16;101624.88;;;4.98;94.03
66381;BME280;53177;52.648;1.214;2023-04-02T03:13:45;101624.88;;;4.98;94.55
66381;BME280;53177;52.648;1.214;2023-04-02T03:16:22;101638.84;;;4.97;94.26
66381;BME280;53177;52.648;1.214;2023-04-02T03:19:00;101634.47;;;4.98;94.48
66381;BME280;53177;52.648;1.214;2023-04-02T03:24:07;101645.88;;;5.01;94.07
66381;BME280;53177;52.648;1.214;2023-04-02T03:26:39;101650.25;;;5.01;94.03
66381;BME280;53177;52.648;1.214;2023-04-02T03:29:28;101651.13;;;5.03;93.85
66381;BME280;53177;52.648;1.214;2023-04-02T03:34:36;101662.53;;;5.05;94.08
66381;BME280;53177;52.648;1.214;2023-04-02T03:37:12;101666.03;;;5.07;94.18
66381;BME280;53177;52.648;1.214;2023-04-02T03:39:42;101674.72;;;5.03;94.36
66381;BME280;53177;52.648;1.214;2023-04-02T03:42:15;101667.75;;;5.03;94.65
66381;BME280;53177;52.648;1.214;2023-04-02T03:44:59;101677.34;;;5.03;94.89
66381;BME280;53177;52.648;1.214;2023-04-02T03:48:01;101685.25;;;5.04;93.66
66381;BME280;53177;52.648;1.214;2023-04-02T03:50:34;101695.75;;;5.06;95.05
66381;BME280;53177;52.648;1.214;2023-04-02T03:53:03;101687.88;;;5.04;94.83
66381;BME280;53177;52.648;1.214;2023-04-02T03:55:31;101694.88;;;5.05;94.21
66381;BME280;53177;52.648;1.214;2023-04-02T03:58:08;101688.78;;;5.06;94.67
66381;BME280;53177;52.648;1.214;2023-04-02T04:00:51;101691.41;;;5.08;94.38
66381;BME280;53177;52.648;1.214;2023-04-02T04:03:43;101695.78;;;5.07;94.76
66381;BME280;53177;52.648;1.214;2023-04-02T04:06:23;101704.56;;;5.09;93.67
66381;BME280;53177;52.648;1.214;2023-04-02T04:08:59;101710.59;;;5.07;93.65
66381;BME280;53177;52.648;1.214;2023-04-02T04:11:30;101713.22;;;5.07;92.95
66381;BME280;53177;52.648;1.214;2023-04-02T04:14:08;101719.34;;;5.07;92.66
66381;BME280;53177;52.648;1.214;2023-04-02T04:22:09;101723.72;;;5.07;91.96
66381;BME280;53177;52.648;1.214;2023-04-02T04:24:34;101724.59;;;5.06;91.77
66381;BME280;53177;52.648;1.214;2023-04-02T04:27:07;101735.97;;;5.08;91.68
66381;BME280;53177;52.648;1.214;2023-04-02T04:32:47;101740.31;;;5.06;91.12
66381;BME280;53177;52.648;1.214;2023-04-02T04:35:30;101742.03;;;5.04;91.29
66381;BME280;53177;52.648;1.214;2023-04-02T04:38:11;101752.50;;;5.02;91.16
66381;BME280;53177;52.648;1.214;2023-04-02T04:40:44;101749.84;;;5.01;91.71
66381;BME280;53177;52.648;1.214;2023-04-02T04:43:30;101759.44;;;5.00;91.41
66381;BME280;53177;52.648;1.214;2023-04-02T04:46:05;101762.06;;;5.00;91.52
66381;BME280;53177;52.648;1.214;2023-04-02T04:48:36;101763.84;;;5.01;92.20
66381;BME280;53177;52.648;1.214;2023-04-02T04:51:07;101763.78;;;4.98;90.50
66381;BME280;53177;52.648;1.214;2023-04-02T04:53:44;101780.44;;;5.02;90.22
66381;BME280;53177;52.648;1.214;2023-04-02T04:56:11;101782.13;;;4.98;89.46
66381;BME280;53177;52.648;1.214;2023-04-02T04:58:45;101786.63;;;5.05;87.50
66381;BME280;53177;52.648;1.214;2023-04-02T05:01:17;101794.50;;;5.05;87.52
66381;BME280;53177;52.648;1.214;2023-04-02T05:04:09;101796.19;;;5.02;88.39
66381;BME280;53177;52.648;1.214;2023-04-02T05:06:42;101799.66;;;5.01;88.82
66381;BME280;53177;52.648;1.214;2023-04-02T05:09:33;101804.00;;;4.99;88.80
66381;BME280;53177;52.648;1.214;2023-04-02T05:17:37;101818.56;;;4.83;86.34
66381;BME280;53177;52.648;1.214;2023-04-02T05:23:18;101827.91;;;4.70;86.67
66381;BME280;53177;52.648;1.214;2023-04-02T05:26:08;101839.19;;;4.66;86.42
66381;BME280;53177;52.648;1.214;2023-04-02T05:28:41;101839.22;;;4.68;84.92
66381;BME280;53177;52.648;1.214;2023-04-02T05:31:12;101842.59;;;4.62;86.91
66381;BME280;53177;52.648;1.214;2023-04-02T05:33:44;101847.66;;;4.53;86.75
66381;BME280;53177;52.648;1.214;2023-04-02T05:36:17;101852.75;;;4.46;86.12
66381;BME280;53177;52.648;1.214;2023-04-02T05:38:44;101847.56;;;4.47;85.51
66381;BME280;53177;52.648;1.214;2023-04-02T05:41:26;101856.28;;;4.48;86.42
66381;BME280;53177;52.648;1.214;2023-04-02T05:44:16;101857.88;;;4.41;85.91
66381;BME280;53177;52.648;1.214;2023-04-02T05:46:47;101868.31;;;4.38;85.60
66381;BME280;53177;52.648;1.214;2023-04-02T05:52:05;101877.88;;;4.36;86.00
66381;BME280;53177;52.648;1.214;2023-04-02T05:54:44;101884.81;;;4.34;85.33
66381;BME280;53177;52.648;1.214;2023-04-02T05:57:17;101887.47;;;4.35;84.63
66381;BME280;53177;52.648;1.214;2023-04-02T05:59:52;101901.41;;;4.34;85.32
66381;BME280;53177;52.648;1.214;2023-04-02T06:02:24;101902.25;;;4.33;85.73
66381;BME280;53177;52.648;1.214;2023-04-02T06:04:58;101909.16;;;4.30;85.96
66381;BME280;53177;52.648;1.214;2023-04-02T06:07:39;101911.91;;;4.36;85.68
66381;BME280;53177;52.648;1.214;2023-04-02T06:10:20;101915.50;;;4.39;85.49
66381;BME280;53177;52.648;1.214;2023-04-02T06:12:56;101924.38;;;4.48;85.90
66381;BME280;53177;52.648;1.214;2023-04-02T06:15:24;101933.16;;;4.50;85.56
66381;BME280;53177;52.648;1.214;2023-04-02T06:20:19;101935.00;;;4.54;85.54
66381;BME280;53177;52.648;1.214;2023-04-02T06:23:22;101935.88;;;4.54;85.66
66381;BME280;53177;52.648;1.214;2023-04-02T06:28:32;101925.47;;;4.59;86.23
66381;BME280;53177;52.648;1.214;2023-04-02T06:31:02;101930.88;;;4.65;85.86
66381;BME280;53177;52.648;1.214;2023-04-02T06:33:31;101925.78;;;4.72;85.82
66381;BME280;53177;52.648;1.214;2023-04-02T06:35:58;101934.59;;;4.77;86.58
66381;BME280;53177;52.648;1.214;2023-04-02T06:38:27;101939.06;;;4.81;85.34
66381;BME280;53177;52.648;1.214;2023-04-02T06:40:58;101950.63;;;4.93;84.57
66381;BME280;53177;52.648;1.214;2023-04-02T06:43:31;101952.41;;;4.94;84.29
66381;BME280;53177;52.648;1.214;2023-04-02T06:46:04;101957.72;;;4.97;85.10
66381;BME280;53177;52.648;1.214;2023-04-02T06:48:32;101966.47;;;4.97;84.59
66381;BME280;53177;52.648;1.214;2023-04-02T06:51:04;101972.59;;;4.99;84.35
66381;BME280;53177;52.648;1.214;2023-04-02T06:53:40;101979.72;;;5.05;83.32
66381;BME280;53177;52.648;1.214;2023-04-02T06:58:51;101985.88;;;5.07;83.59
66381;BME280;53177;52.648;1.214;2023-04-02T07:01:21;101981.56;;;5.09;83.12
66381;BME280;53177;52.648;1.214;2023-04-02T07:03:48;101986.00;;;5.14;82.41
66381;BME280;53177;52.648;1.214;2023-04-02T07:06:16;101987.84;;;5.17;84.08
66381;BME280;53177;52.648;1.214;2023-04-02T07:08:41;101996.53;;;5.16;83.24
66381;BME280;53177;52.648;1.214;2023-04-02T07:11:12;101995.72;;;5.18;82.59
66381;BME280;53177;52.648;1.214;2023-04-02T07:13:37;101994.88;;;5.19;81.03
66381;BME280;53177;52.648;1.214;2023-04-02T07:16:03;101998.38;;;5.21;81.13
66381;BME280;53177;52.648;1.214;2023-04-02T07:18:30;102007.19;;;5.25;80.62
66381;BME280;53177;52.648;1.214;2023-04-02T07:20:56;102015.94;;;5.25;80.84
66381;BME280;53177;52.648;1.214;2023-04-02T07:23:22;102018.63;;;5.27;80.19
66381;BME280;53177;52.648;1.214;2023-04-02T07:25:50;102023.06;;;5.31;81.97
66381;BME280;53177;52.648;1.214;2023-04-02T07:28:16;102035.47;;;5.39;83.97
66381;BME280;53177;52.648;1.214;2023-04-02T07:30:43;102047.69;;;5.37;82.18
66381;BME280;53177;52.648;1.214;2023-04-02T07:33:16;102047.69;;;5.37;80.54
66381;BME280;53177;52.648;1.214;2023-04-02T07:35:42;102049.50;;;5.42;80.87
66381;BME280;53177;52.648;1.214;2023-04-02T07:38:08;102048.72;;;5.47;82.23
66381;BME280;53177;52.648;1.214;2023-04-02T07:40:33;102053.13;;;5.47;80.28
66381;BME280;53177;52.648;1.214;2023-04-02T07:42:59;102058.31;;;5.45;78.65
66381;BME280;53177;52.648;1.214;2023-04-02T07:45:25;102067.09;;;5.46;78.75
66381;BME280;53177;52.648;1.214;2023-04-02T07:47:50;102069.72;;;5.47;79.00
66381;BME280;53177;52.648;1.214;2023-04-02T07:50:17;102074.09;;;5.47;78.31
66381;BME280;53177;52.648;1.214;2023-04-02T07:52:42;102081.84;;;5.40;76.35
66381;BME280;53177;52.648;1.214;2023-04-02T07:55:09;102089.75;;;5.42;78.71
66381;BME280;53177;52.648;1.214;2023-04-02T07:57:38;102087.91;;;5.39;77.25
66381;BME280;53177;52.648;1.214;2023-04-02T08:00:04;102096.00;;;5.49;79.52
66381;BME280;53177;52.648;1.214;2023-04-02T08:02:31;102106.53;;;5.50;79.55
66381;BME280;53177;52.648;1.214;2023-04-02T08:04:56;102101.19;;;5.47;78.85
66381;BME280;53177;52.648;1.214;2023-04-02T08:07:22;102110.09;;;5.54;77.64
66381;BME280;53177;52.648;1.214;2023-04-02T08:09:47;102107.69;;;5.66;77.67
66381;BME280;53177;52.648;1.214;2023-04-02T08:12:13;102104.66;;;5.86;77.05
66381;BME280;53177;52.648;1.214;2023-04-02T08:14:38;102110.25;;;6.06;76.10
66381;BME280;53177;52.648;1.214;2023-04-02T08:17:04;102117.94;;;5.96;75.17
66381;BME280;53177;52.648;1.214;2023-04-02T08:19:30;102110.19;;;6.02;77.51
66381;BME280;53177;52.648;1.214;2023-04-02T08:21:55;102127.81;;;6.10;75.67
66381;BME280;53177;52.648;1.214;2023-04-02T08:24:21;102124.38;;;6.13;76.90
66381;BME280;53177;52.648;1.214;2023-04-02T08:26:48;102128.47;;;5.99;75.04
66381;BME280;53177;52.648;1.214;2023-04-02T08:29:13;102131.09;;;5.97;76.03
66381;BME280;53177;52.648;1.214;2023-04-02T08:31:39;102138.03;;;5.95;75.94
66381;BME280;53177;52.648;1.214;2023-04-02T08:34:06;102133.91;;;6.08;76.24
66381;BME280;53177;52.648;1.214;2023-04-02T08:36:35;102135.03;;;6.20;77.10
66381;BME280;53177;52.648;1.214;2023-04-02T08:39:02;102139.50;;;6.26;73.00
66381;BME280;53177;52.648;1.214;2023-04-02T08:41:35;102137.66;;;6.22;73.60
66381;BME280;53177;52.648;1.214;2023-04-02T08:46:51;102152.16;;;6.48;75.88
66381;BME280;53177;52.648;1.214;2023-04-02T08:49:31;102166.41;;;6.14;72.84
66381;BME280;53177;52.648;1.214;2023-04-02T08:52:01;102174.34;;;6.16;72.83
66381;BME280;53177;52.648;1.214;2023-04-02T08:54:29;102185.25;;;5.92;71.62
66381;BME280;53177;52.648;1.214;2023-04-02T08:57:06;102181.72;;;5.90;72.40
66381;BME280;53177;52.648;1.214;2023-04-02T08:59:40;102190.75;;;6.04;72.48
66381;BME280;53177;52.648;1.214;2023-04-02T09:02:31;102192.31;;;5.96;71.57
66381;BME280;53177;52.648;1.214;2023-04-02T09:05:02;102184.22;;;5.85;71.44
66381;BME280;53177;52.648;1.214;2023-04-02T09:07:29;102193.31;;;6.01;73.15
66381;BME280;53177;52.648;1.214;2023-04-02T09:09:57;102203.94;;;6.07;73.27
66381;BME280;53177;52.648;1.214;2023-04-02T09:12:26;102205.66;;;6.05;72.56
66381;BME280;53177;52.648;1.214;2023-04-02T09:17:34;102216.16;;;6.52;71.55
66381;BME280;53177;52.648;1.214;2023-04-02T09:20:13;102206.06;;;6.26;72.69
66381;BME280;53177;52.648;1.214;2023-04-02T09:22:41;102212.75;;;6.09;71.86
66381;BME280;53177;52.648;1.214;2023-04-02T09:25:15;102213.69;;;6.13;71.89
66381;BME280;53177;52.648;1.214;2023-04-02T09:27:41;102214.59;;;6.15;70.66
66381;BME280;53177;52.648;1.214;2023-04-02T09:33:00;102207.47;;;6.56;73.67
66381;BME280;53177;52.648;1.214;2023-04-02T09:35:31;102217.75;;;6.93;73.17
66381;BME280;53177;52.648;1.214;2023-04-02T09:40:48;102225.16;;;6.64;69.18
66381;BME280;53177;52.648;1.214;2023-04-02T09:43:23;102227.78;;;6.64;69.39
66381;BME280;53177;52.648;1.214;2023-04-02T09:46:02;102233.69;;;7.04;68.98
66381;BME280;53177;52.648;1.214;2023-04-02T09:48:36;102228.63;;;7.17;68.01
66381;BME280;53177;52.648;1.214;2023-04-02T09:53:36;102239.59;;;7.45;68.57
66381;BME280;53177;52.648;1.214;2023-04-02T09:58:38;102244.47;;;7.80;68.52
66381;BME280;53177;52.648;1.214;2023-04-02T10:01:04;102244.25;;;7.64;66.78
66381;BME280;53177;52.648;1.214;2023-04-02T10:03:33;102241.22;;;8.03;67.34
66381;BME280;53177;52.648;1.214;2023-04-02T10:08:32;102250.88;;;8.79;68.30
66381;BME280;53177;52.648;1.214;2023-04-02T10:11:00;102259.38;;;7.78;64.12
66381;BME280;53177;52.648;1.214;2023-04-02T10:13:30;102266.34;;;7.16;65.84
66381;BME280;53177;52.648;1.214;2023-04-02T10:16:04;102263.69;;;7.72;67.89
66381;BME280;53177;52.648;1.214;2023-04-02T10:18:45;102268.69;;;8.20;67.48
66381;BME280;53177;52.648;1.214;2023-04-02T10:21:17;102277.53;;;7.60;65.81
66381;BME280;53177;52.648;1.214;2023-04-02T10:23:44;102286.72;;;7.29;67.70
66381;BME280;53177;52.648;1.214;2023-04-02T10:30:00;102270.31;;;8.09;65.90
66381;BME280;53177;52.648;1.214;2023-04-02T10:35:06;102278.50;;;8.31;64.13
66381;BME280;53177;52.648;1.214;2023-04-02T10:40:20;102286.56;;;8.45;63.10
66381;BME280;53177;52.648;1.214;2023-04-02T10:51:27;102311.09;;;7.75;62.81
66381;BME280;53177;52.648;1.214;2023-04-02T10:54:12;102325.88;;;7.65;65.69
66381;BME280;53177;52.648;1.214;2023-04-02T10:56:43;102312.66;;;7.62;62.98
66381;BME280;53177;52.648;1.214;2023-04-02T10:59:21;102323.19;;;8.25;64.88
66381;BME280;53177;52.648;1.214;2023-04-02T11:01:48;102313.19;;;7.99;66.13
66381;BME280;53177;52.648;1.214;2023-04-02T11:04:26;102320.25;;;8.01;63.20
66381;BME280;53177;52.648;1.214;2023-04-02T11:07:02;102321.00;;;8.59;66.86
66381;BME280;53177;52.648;1.214;2023-04-02T11:09:32;102320.97;;;8.57;64.42
66381;BME280;53177;52.648;1.214;2023-04-02T11:12:04;102322.66;;;8.51;62.58
66381;BME280;53177;52.648;1.214;2023-04-02T11:14:31;102324.84;;;8.90;63.79
66381;BME280;53177;52.648;1.214;2023-04-02T11:16:58;102336.72;;;9.39;62.60
66381;BME280;53177;52.648;1.214;2023-04-02T11:19:32;102329.81;;;8.61;61.04
66381;BME280;53177;52.648;1.214;2023-04-02T11:22:02;102339.66;;;8.09;62.91
66381;BME280;53177;52.648;1.214;2023-04-02T11:27:10;102350.66;;;8.41;62.52
66381;BME280;53177;52.648;1.214;2023-04-02T11:29:45;102349.72;;;8.36;61.67
66381;BME280;53177;52.648;1.214;2023-04-02T11:37:41;102339.63;;;8.74;62.70
66381;BME280;53177;52.648;1.214;2023-04-02T11:50:43;102359.19;;;8.94;63.41
66381;BME280;53177;52.648;1.214;2023-04-02T11:55:36;102362.41;;;9.59;63.82
66381;BME280;53177;52.648;1.214;2023-04-02T12:01:23;102370.50;;;9.79;62.94
66381;BME280;53177;52.648;1.214;2023-04-02T12:07:03;102377.16;;;9.33;59.88
66381;BME280;53177;52.648;1.214;2023-04-02T12:09:48;102381.72;;;8.66;60.18
66381;BME280;53177;52.648;1.214;2023-04-02T12:14:56;102385.53;;;9.91;65.01
66381;BME280;53177;52.648;1.214;2023-04-02T12:17:33;102382.94;;;9.98;59.27
66381;BME280;53177;52.648;1.214;2023-04-02T12:22:31;102394.22;;;9.73;58.58
66381;BME280;53177;52.648;1.214;2023-04-02T12:25:04;102391.19;;;10.50;63.94
66381;BME280;53177;52.648;1.214;2023-04-02T12:27:30;102402.63;;;10.41;58.70
66381;BME280;53177;52.648;1.214;2023-04-02T12:30:12;102399.78;;;9.05;59.29
66381;BME280;53177;52.648;1.214;2023-04-02T12:32:39;102416.56;;;8.41;60.36
66381;BME280;53177;52.648;1.214;2023-04-02T12:35:05;102408.03;;;8.62;62.24
66381;BME280;53177;52.648;1.214;2023-04-02T12:37:30;102411.97;;;8.94;60.90
66381;BME280;53177;52.648;1.214;2023-04-02T12:40:16;102411.28;;;9.12;59.01
66381;BME280;53177;52.648;1.214;2023-04-02T12:42:41;102413.50;;;9.63;61.86
66381;BME280;53177;52.648;1.214;2023-04-02T12:45:23;102418.75;;;9.57;57.06
66381;BME280;53177;52.648;1.214;2023-04-02T12:47:49;102425.84;;;9.64;58.83
66381;BME280;53177;52.648;1.214;2023-04-02T12:50:19;102422.38;;;9.72;59.39
66381;BME280;53177;52.648;1.214;2023-04-02T12:52:49;102429.88;;;10.27;63.35
66381;BME280;53177;52.648;1.214;2023-04-02T12:55:19;102430.72;;;10.25;59.43
66381;BME280;53177;52.648;1.214;2023-04-02T12:57:46;102435.28;;;10.49;62.99
66381;BME280;53177;52.648;1.214;2023-04-02T13:03:14;102433.16;;;10.00;58.44
66381;BME280;53177;52.648;1.214;2023-04-02T13:05:44;102438.38;;;9.91;60.30
66381;BME280;53177;52.648;1.214;2023-04-02T13:08:24;102438.53;;;10.13;63.54
66381;BME280;53177;52.648;1.214;2023-04-02T13:10:56;102441.59;;;9.55;58.17
66381;BME280;53177;52.648;1.214;2023-04-02T13:13:27;102449.72;;;8.90;58.40
66381;BME280;53177;52.648;1.214;2023-04-02T13:18:47;102435.44;;;9.57;62.64
66381;BME280;53177;52.648;1.214;2023-04-02T13:23:42;102441.72;;;8.21;61.41
66381;BME280;53177;52.648;1.214;2023-04-02T13:26:18;102451.06;;;8.56;62.04
66381;BME280;53177;52.648;1.214;2023-04-02T13:29:15;102448.94;;;8.97;60.52
66381;BME280;53177;52.648;1.214;2023-04-02T13:31:41;102448.03;;;9.84;76.20
66381;BME280;53177;52.648;1.214;2023-04-02T13:34:07;102447.06;;;9.76;61.53
66381;BME280;53177;52.648;1.214;2023-04-02T13:36:32;102443.53;;;9.75;58.16
66381;BME280;53177;52.648;1.214;2023-04-02T13:38:58;102453.28;;;9.81;58.43
66381;BME280;53177;52.648;1.214;2023-04-02T13:41:26;102450.97;;;10.19;66.05
66381;BME280;53177;52.648;1.214;2023-04-02T13:43:57;102452.50;;;9.93;64.82
66381;BME280;53177;52.648;1.214;2023-04-02T13:46:26;102454.13;;;9.77;58.75
66381;BME280;53177;52.648;1.214;2023-04-02T13:48:52;102460.56;;;9.14;61.42
66381;BME280;53177;52.648;1.214;2023-04-02T13:51:21;102470.41;;;8.58;60.35
66381;BME280;53177;52.648;1.214;2023-04-02T13:53:53;102464.47;;;8.74;61.33
66381;BME280;53177;52.648;1.214;2023-04-02T13:56:19;102466.72;;;8.47;67.17
66381;BME280;53177;52.648;1.214;2023-04-02T13:58:47;102467.44;;;9.02;65.98
66381;BME280;53177;52.648;1.214;2023-04-02T14:01:12;102479.00;;;9.13;63.53
66381;BME280;53177;52.648;1.214;2023-04-02T14:03:38;102466.34;;;8.85;59.61
66381;BME280;53177;52.648;1.214;2023-04-02T14:06:29;102462.97;;;8.93;60.13
66381;BME280;53177;52.648;1.214;2023-04-02T14:09:13;102465.16;;;9.34;62.29
66381;BME280;53177;52.648;1.214;2023-04-02T14:20:33;102476.09;;;9.73;57.69
66381;BME280;53177;52.648;1.214;2023-04-02T14:28:50;102482.00;;;10.49;63.67
66381;BME280;53177;52.648;1.214;2023-04-02T14:31:38;102487.97;;;9.28;59.12
66381;BME280;53177;52.648;1.214;2023-04-02T14:42:01;102498.06;;;8.91;58.57
66381;BME280;53177;52.648;1.214;2023-04-02T14:44:32;102493.34;;;8.65;57.99
66381;BME280;53177;52.648;1.214;2023-04-02T14:47:11;102499.75;;;8.83;56.13
66381;BME280;53177;52.648;1.214;2023-04-02T14:49:41;102498.59;;;8.62;57.28
66381;BME280;53177;52.648;1.214;2023-04-02T14:52:13;102502.91;;;8.57;58.11
66381;BME280;53177;52.648;1.214;2023-04-02T14:54:59;102490.50;;;9.18;59.18
66381;BME280;53177;52.648;1.214;2023-04-02T15:00:05;102498.59;;;8.61;60.38
66381;BME280;53177;52.648;1.214;2023-04-02T15:02:46;102503.44;;;9.76;61.14
66381;BME280;53177;52.648;1.214;2023-04-02T15:05:19;102500.53;;;9.49;68.08
66381;BME280;53177;52.648;1.214;2023-04-02T15:08:06;102506.91;;;8.93;58.86
66381;BME280;53177;52.648;1.214;2023-04-02T15:11:00;102507.28;;;8.55;59.28
66381;BME280;53177;52.648;1.214;2023-04-02T15:16:25;102497.00;;;8.16;61.76
66381;BME280;53177;52.648;1.214;2023-04-02T15:18:52;102506.88;;;8.91;62.09
66381;BME280;53177;52.648;1.214;2023-04-02T15:29:31;102509.13;;;9.30;64.71
66381;BME280;53177;52.648;1.214;2023-04-02T15:35:07;102516.88;;;8.50;61.39
66381;BME280;53177;52.648;1.214;2023-04-02T15:43:25;102507.09;;;8.43;65.11
66381;BME280;53177;52.648;1.214;2023-04-02T15:46:02;102507.88;;;8.99;63.17
66381;BME280;53177;52.648;1.214;2023-04-02T16:05:19;102525.88;;;8.66;64.41
66381;BME280;53177;52.648;1.214;2023-04-02T16:10:30;102534.63;;;8.09;73.31
66381;BME280;53177;52.648;1.214;2023-04-02T16:12:57;102538.38;;;7.72;64.43
66381;BME280;53177;52.648;1.214;2023-04-02T16:15:33;102535.81;;;7.75;66.12
66381;BME280;53177;52.648;1.214;2023-04-02T16:18:05;102540.00;;;7.64;65.46
66381;BME280;53177;52.648;1.214;2023-04-02T16:20:38;102532.03;;;7.60;63.52
66381;BME280;53177;52.648;1.214;2023-04-02T16:23:16;102539.69;;;7.96;63.52
66381;BME280;53177;52.648;1.214;2023-04-02T16:25:52;102541.75;;;7.65;65.42
66381;BME280;53177;52.648;1.214;2023-04-02T16:34:40;102549.38;;;7.05;65.60
66381;BME280;53177;52.648;1.214;2023-04-02T16:39:42;102547.13;;;7.25;66.98
66381;BME280;53177;52.648;1.214;2023-04-02T16:45:34;102550.13;;;7.91;72.72
66381;BME280;53177;52.648;1.214;2023-04-02T16:48:07;102552.00;;;7.50;70.24
66381;BME280;53177;52.648;1.214;2023-04-02T16:53:29;102559.16;;;7.12;68.82
66381;BME280;53177;52.648;1.214;2023-04-02T17:04:24;102579.25;;;7.10;66.53
66381;BME280;53177;52.648;1.214;2023-04-02T17:09:44;102583.78;;;7.16;66.74
66381;BME280;53177;52.648;1.214;2023-04-02T17:12:21;102581.88;;;7.09;68.35
66381;BME280;53177;52.648;1.214;2023-04-02T17:14:50;102592.59;;;7.61;69.74
66381;BME280;53177;52.648;1.214;2023-04-02T17:17:19;102593.38;;;7.14;65.22
66381;BME280;53177;52.648;1.214;2023-04-02T17:19:45;102595.38;;;7.25;67.82